Lyons, Wisconsin
Current Conditions -  °F | °C
As of 11:35 AM on Saturday 25 Oct 2014 (Local Time) from KBUU Reporting Station
Clear Clear  
Wind Chill: 64°   Ceiling: Unl
Heat Index: 64°   Visibility: 10mi
Dew Point: 38°   Wind: 20mph
Humidity: 39%   Direction: 300°WNW
Pressure: 29.94"   Gusts: 24mph
Location:  42.65°N, 88.36°W
Report Text: KBUU 251635Z AUTO 30017G21KT 10SM CLR 18/03 A2994 RMK AO2 T01750033
Loading
Personal Weather Stations






























Interactive Weather Map
Tropical Storm Tracking
New forecast layout! Learn more

10-Day Weather Forecast

Advertisements
Track Severe Weather on mobile